createdAt,value
2022-12-15T00:01:39.067Z,2.40
2022-12-15T00:04:24.095Z,2.40
2022-12-15T00:07:09.225Z,3.20
2022-12-15T00:09:54.255Z,2.00
2022-12-15T00:12:39.715Z,1.80
2022-12-15T00:15:25.197Z,1.70
2022-12-15T00:18:10.210Z,1.80
2022-12-15T00:20:55.299Z,1.90
2022-12-15T00:23:40.421Z,2.00
2022-12-15T00:26:25.794Z,2.00
2022-12-15T00:29:10.928Z,2.00
2022-12-15T00:31:55.985Z,1.90
2022-12-15T00:34:41.410Z,1.90
2022-12-15T00:37:26.724Z,2.00
2022-12-15T00:39:58.587Z,1.90
2022-12-15T00:42:28.784Z,1.90
2022-12-15T00:44:55.936Z,1.90
2022-12-15T00:47:22.699Z,1.80
2022-12-15T00:50:08.075Z,1.70
2022-12-15T00:52:53.204Z,1.70
2022-12-15T00:55:38.339Z,1.80
2022-12-15T00:58:23.928Z,1.70
2022-12-15T01:01:08.818Z,1.80
2022-12-15T01:03:54.037Z,1.60
2022-12-15T01:06:39.278Z,1.50
2022-12-15T01:09:25.788Z,1.60
2022-12-15T01:12:10.756Z,1.60
2022-12-15T01:14:55.973Z,1.50
2022-12-15T01:17:41.439Z,1.60
2022-12-15T01:20:18.127Z,1.50
2022-12-15T01:22:48.871Z,1.60
2022-12-15T01:25:16.660Z,1.60
2022-12-15T01:27:43.964Z,1.70
2022-12-15T01:30:12.132Z,1.70
2022-12-15T01:32:44.315Z,1.70
2022-12-15T01:35:12.727Z,1.80
2022-12-15T01:37:39.328Z,1.70
2022-12-15T01:40:24.671Z,1.70
2022-12-15T01:42:51.590Z,1.80
2022-12-15T01:45:24.352Z,1.80
2022-12-15T01:47:51.885Z,1.70
2022-12-15T01:50:19.163Z,1.50
2022-12-15T01:52:47.216Z,1.60
2022-12-15T01:55:18.586Z,1.70
2022-12-15T01:57:46.306Z,1.70
2022-12-15T02:00:13.158Z,1.70
2022-12-15T02:02:40.648Z,1.80
2022-12-15T02:05:07.837Z,1.80
2022-12-15T02:07:34.444Z,1.70
2022-12-15T02:10:02.717Z,3.80
2022-12-15T02:12:32.286Z,2.60
2022-12-15T02:15:09.597Z,1.60
2022-12-15T02:17:39.400Z,1.60
2022-12-15T02:20:24.696Z,1.70
2022-12-15T02:23:00.512Z,1.70
2022-12-15T02:25:38.401Z,1.70
2022-12-15T02:28:10.395Z,1.80
2022-12-15T02:30:43.062Z,1.80
2022-12-15T02:33:27.403Z,1.80
2022-12-15T02:35:57.785Z,1.80
2022-12-15T02:38:28.461Z,1.80
2022-12-15T02:40:58.797Z,1.90
2022-12-15T02:43:25.851Z,1.90
2022-12-15T02:45:57.587Z,1.80
2022-12-15T02:48:36.219Z,2.10
2022-12-15T02:51:07.371Z,1.80
2022-12-15T02:53:52.834Z,1.80
2022-12-15T02:56:26.405Z,1.80
2022-12-15T02:58:53.026Z,1.80
2022-12-15T03:01:28.306Z,1.80
2022-12-15T03:03:56.122Z,1.70
2022-12-15T03:06:24.287Z,1.70
2022-12-15T03:08:51.085Z,1.60
2022-12-15T03:11:17.771Z,1.60
2022-12-15T03:13:44.404Z,1.60
2022-12-15T03:16:11.008Z,1.50
2022-12-15T03:18:37.664Z,1.50
2022-12-15T03:21:04.299Z,2.20
2022-12-15T03:23:31.115Z,1.40
2022-12-15T03:25:58.107Z,1.20
2022-12-15T03:28:24.707Z,1.20
2022-12-15T03:30:51.274Z,1.10
2022-12-15T03:33:19.573Z,1.20
2022-12-15T03:35:46.211Z,1.20
2022-12-15T03:38:13.452Z,1.20
2022-12-15T03:40:40.164Z,1.20
2022-12-15T03:43:06.744Z,1.20
2022-12-15T03:45:33.427Z,1.20
2022-12-15T03:48:00.042Z,0.80
2022-12-15T03:50:27.978Z,0.80
2022-12-15T03:52:55.828Z,0.80
2022-12-15T03:55:23.098Z,0.80
2022-12-15T03:57:50.408Z,0.80
2022-12-15T04:00:18.634Z,0.90
2022-12-15T04:02:45.694Z,0.70
2022-12-15T04:05:18.189Z,0.40
2022-12-15T04:07:45.095Z,0.60
2022-12-15T04:10:12.292Z,0.60
2022-12-15T04:12:39.780Z,0.80
2022-12-15T04:15:07.141Z,0.80
2022-12-15T04:17:33.930Z,0.90
2022-12-15T04:20:09.650Z,4.00
2022-12-15T04:22:37.115Z,1.00
2022-12-15T04:25:22.314Z,1.00
2022-12-15T04:28:08.460Z,1.10
2022-12-15T04:30:54.287Z,1.10
2022-12-15T04:33:39.738Z,1.10
2022-12-15T04:36:26.439Z,0.80
2022-12-15T04:39:11.866Z,0.90
2022-12-15T04:41:57.237Z,0.70
2022-12-15T04:44:42.586Z,0.80
2022-12-15T04:47:27.686Z,0.40
2022-12-15T04:50:12.974Z,0.50
2022-12-15T04:52:57.985Z,0.50
2022-12-15T04:55:43.121Z,0.20
2022-12-15T04:58:28.724Z,0.40
2022-12-15T05:01:15.801Z,0.50
2022-12-15T05:04:01.339Z,0.60
2022-12-15T05:06:46.854Z,0.60
2022-12-15T05:09:31.991Z,0.80
2022-12-15T05:12:17.218Z,0.80
2022-12-15T05:15:02.234Z,0.80
2022-12-15T05:17:48.473Z,0.80
2022-12-15T05:20:33.625Z,0.80
2022-12-15T05:23:18.917Z,0.80
2022-12-15T05:26:04.068Z,0.80
2022-12-15T05:28:49.467Z,0.80
2022-12-15T05:31:34.709Z,0.90
2022-12-15T05:34:05.411Z,0.90
2022-12-15T05:36:32.804Z,0.80
2022-12-15T05:38:59.518Z,0.80
2022-12-15T05:41:26.181Z,0.80
2022-12-15T05:43:52.791Z,0.60
2022-12-15T05:46:19.800Z,0.80
2022-12-15T05:48:46.576Z,0.60
2022-12-15T05:51:13.822Z,0.50
2022-12-15T05:53:41.241Z,0.60
2022-12-15T05:56:09.523Z,0.60
2022-12-15T05:58:41.381Z,0.70
2022-12-15T06:01:12.669Z,0.80
2022-12-15T06:03:40.016Z,0.80
2022-12-15T06:06:07.271Z,0.80
2022-12-15T06:08:35.493Z,0.90
2022-12-15T06:11:02.506Z,0.70
2022-12-15T06:13:31.762Z,0.70
2022-12-15T06:15:59.826Z,0.70
2022-12-15T06:18:28.862Z,2.00
2022-12-15T06:21:05.693Z,0.60
2022-12-15T06:23:35.272Z,0.60
2022-12-15T06:26:15.635Z,0.70
2022-12-15T06:28:42.345Z,0.70
2022-12-15T06:31:10.066Z,0.80
2022-12-15T06:33:37.085Z,0.80
2022-12-15T06:36:05.359Z,0.80
2022-12-15T06:38:32.189Z,0.80
2022-12-15T06:40:59.743Z,0.70
2022-12-15T06:43:27.295Z,0.70
2022-12-15T06:45:54.302Z,0.70
2022-12-15T06:48:21.920Z,0.80
2022-12-15T06:50:50.213Z,0.80
2022-12-15T06:53:18.234Z,0.90
2022-12-15T06:55:45.130Z,0.80
2022-12-15T06:58:12.489Z,0.80
2022-12-15T07:00:40.174Z,0.60
2022-12-15T07:03:07.721Z,0.70
2022-12-15T07:05:34.792Z,0.80
2022-12-15T07:08:01.403Z,0.80
2022-12-15T07:10:27.972Z,0.80
2022-12-15T07:12:56.442Z,0.80
2022-12-15T07:15:23.495Z,0.80
2022-12-15T07:17:51.169Z,0.80
2022-12-15T07:20:17.773Z,0.70
2022-12-15T07:22:44.425Z,0.70
2022-12-15T07:25:11.079Z,0.70
2022-12-15T07:27:37.763Z,0.80
2022-12-15T07:30:04.595Z,0.70
2022-12-15T07:32:31.170Z,0.50
2022-12-15T07:34:57.848Z,0.60
2022-12-15T07:37:24.439Z,0.70
2022-12-15T07:39:51.014Z,0.70
2022-12-15T07:42:17.630Z,0.70
2022-12-15T07:44:44.190Z,0.70
2022-12-15T07:47:10.846Z,0.60
2022-12-15T07:49:37.502Z,0.50
2022-12-15T07:52:04.346Z,0.40
2022-12-15T07:54:31.179Z,0.50
2022-12-15T07:56:59.990Z,0.60
2022-12-15T07:59:26.565Z,0.50
2022-12-15T08:01:53.740Z,0.60
2022-12-15T08:04:20.415Z,0.70
2022-12-15T08:06:47.092Z,0.80
2022-12-15T08:09:13.747Z,0.90
2022-12-15T08:11:40.422Z,0.80
2022-12-15T08:14:14.939Z,0.90
2022-12-15T08:16:43.992Z,0.80
2022-12-15T08:19:11.377Z,0.80
2022-12-15T08:21:39.524Z,0.90
2022-12-15T08:24:07.858Z,1.00
2022-12-15T08:26:34.601Z,1.00
2022-12-15T08:29:32.055Z,1.00
2022-12-15T08:31:50.729Z,1.00
2022-12-15T08:34:17.433Z,1.20
2022-12-15T08:36:44.014Z,3.50
2022-12-15T08:39:10.638Z,1.40
2022-12-15T08:41:37.206Z,1.30
2022-12-15T08:44:03.929Z,1.40
2022-12-15T08:46:32.806Z,1.60
2022-12-15T08:49:00.123Z,1.70
2022-12-15T08:51:28.217Z,1.80
2022-12-15T08:53:55.794Z,2.00
2022-12-15T08:56:22.817Z,2.00
2022-12-15T08:58:50.389Z,2.00
2022-12-15T09:01:22.799Z,1.60
2022-12-15T09:03:51.056Z,1.80
2022-12-15T09:06:18.696Z,1.70
2022-12-15T09:08:48.479Z,1.70
2022-12-15T09:11:17.358Z,1.50
2022-12-15T09:13:44.489Z,1.50
2022-12-15T09:16:13.557Z,1.50
2022-12-15T09:18:44.114Z,1.50
2022-12-15T09:21:11.221Z,1.20
2022-12-15T09:23:37.868Z,1.70
2022-12-15T09:26:12.159Z,1.80
2022-12-15T09:28:39.010Z,1.90
2022-12-15T09:31:05.714Z,1.90
2022-12-15T09:33:33.029Z,2.40
2022-12-15T09:36:00.089Z,2.00
2022-12-15T09:38:26.852Z,2.10
2022-12-15T09:40:53.459Z,2.10
2022-12-15T09:43:34.422Z,2.20
2022-12-15T09:46:08.188Z,2.30
2022-12-15T09:48:39.544Z,2.20
2022-12-15T09:51:07.613Z,2.30
2022-12-15T09:56:23.163Z,2.20
2022-12-15T09:58:56.401Z,2.10
2022-12-15T10:01:33.575Z,2.20
2022-12-15T10:04:20.069Z,2.00
2022-12-15T10:07:09.859Z,1.70
2022-12-15T10:09:36.963Z,1.90
2022-12-15T10:12:07.501Z,2.10
2022-12-15T10:14:46.124Z,2.00
2022-12-15T10:17:26.058Z,2.20
2022-12-15T10:20:02.830Z,2.20
2022-12-15T10:22:33.879Z,2.20
2022-12-15T10:25:23.580Z,2.10
2022-12-15T10:28:13.329Z,2.20
2022-12-15T10:30:43.883Z,2.30
2022-12-15T10:33:19.235Z,2.10
2022-12-15T10:35:46.157Z,2.30
2022-12-15T10:38:25.838Z,2.20
2022-12-15T10:40:59.603Z,2.30
2022-12-15T10:43:32.721Z,2.20
2022-12-15T10:46:00.469Z,2.20
2022-12-15T10:48:27.116Z,2.20
2022-12-15T10:51:07.894Z,2.20
2022-12-15T10:53:39.948Z,2.30
2022-12-15T10:56:07.527Z,2.10
2022-12-15T10:58:44.865Z,2.20
2022-12-15T11:01:17.072Z,2.30
2022-12-15T11:03:44.012Z,2.30
2022-12-15T11:06:20.548Z,3.70
2022-12-15T11:08:47.788Z,2.30
2022-12-15T11:11:59.404Z,2.30
2022-12-15T11:14:28.192Z,2.40
2022-12-15T11:16:56.441Z,2.40
2022-12-15T11:19:32.139Z,2.10
2022-12-15T11:22:05.854Z,2.20
2022-12-15T11:24:48.893Z,2.30
2022-12-15T11:27:15.557Z,2.40
2022-12-15T11:30:01.039Z,2.50
2022-12-15T11:32:33.756Z,2.40
2022-12-15T11:35:00.594Z,2.50
2022-12-15T11:37:34.322Z,2.70
2022-12-15T11:40:05.707Z,2.70
2022-12-15T11:42:51.123Z,2.70
2022-12-15T11:45:24.137Z,2.60
2022-12-15T11:48:01.292Z,2.70
2022-12-15T11:50:32.324Z,2.70
2022-12-15T11:53:10.275Z,2.90
2022-12-15T11:55:43.002Z,1.10
2022-12-15T11:58:28.196Z,3.00
2022-12-15T12:01:24.539Z,3.00
2022-12-15T12:04:09.696Z,3.00
2022-12-15T12:06:48.006Z,3.00
2022-12-15T12:09:21.786Z,3.60
2022-12-15T12:11:52.592Z,2.90
2022-12-15T12:14:39.443Z,2.60
2022-12-15T12:17:08.527Z,2.40
2022-12-15T12:19:40.897Z,2.50
2022-12-15T12:22:12.661Z,2.50
2022-12-15T12:24:41.852Z,2.40
2022-12-15T12:27:41.137Z,2.50
2022-12-15T12:30:15.555Z,2.50
2022-12-15T12:32:48.337Z,2.30
2022-12-15T12:38:10.813Z,2.30
2022-12-15T12:40:40.385Z,2.20
2022-12-15T12:43:13.569Z,2.00
2022-12-15T12:45:47.004Z,2.00
2022-12-15T12:48:32.253Z,2.10
2022-12-15T12:51:13.188Z,2.10
2022-12-15T12:53:39.778Z,2.20
2022-12-15T12:56:06.483Z,2.10
2022-12-15T12:58:34.675Z,2.00
2022-12-15T13:01:04.381Z,2.10
2022-12-15T13:03:31.497Z,2.20
2022-12-15T13:05:58.319Z,1.90
2022-12-15T13:08:27.193Z,2.10
2022-12-15T13:10:55.354Z,2.00
2022-12-15T13:13:27.684Z,2.00
2022-12-15T13:16:09.425Z,2.10
2022-12-15T13:18:54.801Z,2.00
2022-12-15T13:21:40.300Z,2.00
2022-12-15T13:24:17.831Z,1.80
2022-12-15T13:26:45.087Z,1.80
2022-12-15T13:29:17.247Z,1.60
2022-12-15T13:31:49.198Z,1.70
2022-12-15T13:34:17.828Z,1.50
2022-12-15T13:36:50.732Z,1.50
2022-12-15T13:39:30.268Z,1.50
2022-12-15T13:44:55.015Z,1.60
2022-12-15T13:47:29.388Z,1.30
2022-12-15T13:50:02.808Z,1.30
2022-12-15T13:53:08.646Z,1.10
2022-12-15T13:55:27.289Z,1.20
2022-12-15T13:57:56.904Z,1.20
2022-12-15T14:00:23.622Z,1.20
2022-12-15T14:02:50.358Z,0.90
2022-12-15T14:05:21.822Z,1.10
2022-12-15T14:07:54.551Z,1.20
2022-12-15T14:10:21.617Z,1.30
2022-12-15T14:12:49.799Z,1.30
2022-12-15T14:15:18.802Z,1.30
2022-12-15T14:17:50.461Z,1.40
2022-12-15T14:20:18.791Z,1.20
2022-12-15T14:22:45.398Z,1.20
2022-12-15T14:25:20.523Z,1.20
2022-12-15T14:27:51.043Z,1.30
2022-12-15T14:30:17.755Z,1.20
2022-12-15T14:32:45.791Z,1.10
2022-12-15T14:35:21.374Z,0.90
2022-12-15T14:37:48.055Z,0.90
2022-12-15T14:40:16.878Z,0.80
2022-12-15T14:42:44.740Z,0.80
2022-12-15T14:45:21.879Z,0.80
2022-12-15T14:48:13.460Z,0.70
2022-12-15T14:50:45.247Z,0.60
2022-12-15T14:53:14.572Z,0.80
2022-12-15T14:55:41.227Z,0.80
2022-12-15T14:58:26.652Z,0.80
2022-12-15T15:00:54.327Z,0.80
2022-12-15T15:03:12.825Z,2.40
2022-12-15T15:05:59.887Z,0.70
2022-12-15T15:08:28.551Z,0.70
2022-12-15T15:10:57.332Z,0.70
2022-12-15T15:13:26.131Z,0.70
2022-12-15T15:15:53.622Z,0.70
2022-12-15T15:18:23.534Z,0.70
2022-12-15T15:20:54.300Z,0.80
2022-12-15T15:23:20.921Z,0.80
2022-12-15T15:25:54.979Z,0.70
2022-12-15T15:28:26.547Z,0.80
2022-12-15T15:30:57.595Z,0.80
2022-12-15T15:33:25.087Z,0.80
2022-12-15T15:35:59.035Z,0.80
2022-12-15T15:38:34.808Z,0.80
2022-12-15T15:41:22.659Z,0.60
2022-12-15T15:43:49.304Z,0.60
2022-12-15T15:46:17.995Z,0.80
2022-12-15T15:49:04.917Z,1.60
2022-12-15T15:51:32.249Z,0.80
2022-12-15T15:54:06.781Z,0.90
2022-12-15T15:56:33.402Z,0.90
2022-12-15T15:59:02.443Z,0.90
2022-12-15T16:01:29.122Z,1.00
2022-12-15T16:03:55.895Z,1.10
2022-12-15T16:06:24.178Z,1.10
2022-12-15T16:08:52.141Z,1.10
2022-12-15T16:11:18.801Z,1.00
2022-12-15T16:13:45.512Z,1.10
2022-12-15T16:16:17.816Z,1.10
2022-12-15T16:18:44.654Z,1.10
2022-12-15T16:21:14.072Z,1.10
2022-12-15T16:23:41.453Z,1.10
2022-12-15T16:26:12.975Z,1.10
2022-12-15T16:28:40.643Z,1.10
2022-12-15T16:31:09.844Z,1.00
2022-12-15T16:33:36.484Z,1.10
2022-12-15T16:36:06.150Z,1.10
2022-12-15T16:38:33.499Z,1.10
2022-12-15T16:41:04.854Z,1.00
2022-12-15T16:43:36.757Z,1.00
2022-12-15T16:46:05.568Z,1.00
2022-12-15T16:48:32.742Z,1.00
2022-12-15T16:50:59.762Z,1.00
2022-12-15T16:53:27.407Z,1.00
2022-12-15T16:55:55.019Z,1.00
2022-12-15T16:58:21.893Z,1.10
2022-12-15T17:00:48.566Z,1.10
2022-12-15T17:03:16.370Z,1.00
2022-12-15T17:05:44.594Z,0.90
2022-12-15T17:08:15.829Z,0.90
2022-12-15T17:10:42.814Z,0.90
2022-12-15T17:13:36.615Z,0.80
2022-12-15T17:16:06.603Z,0.80
2022-12-15T17:18:34.071Z,0.60
2022-12-15T17:21:10.140Z,0.50
2022-12-15T17:23:36.993Z,0.70
2022-12-15T17:26:27.446Z,0.70
2022-12-15T17:28:50.981Z,2.00
2022-12-15T17:31:18.623Z,0.80
2022-12-15T17:33:45.294Z,0.80
2022-12-15T17:36:15.170Z,0.70
2022-12-15T17:38:41.865Z,0.70
2022-12-15T17:41:23.642Z,0.80
2022-12-15T17:44:31.179Z,0.60
2022-12-15T17:46:45.299Z,0.70
2022-12-15T17:49:11.917Z,0.70
2022-12-15T17:51:38.529Z,0.70
2022-12-15T17:54:05.144Z,0.70
2022-12-15T17:56:31.791Z,0.80
2022-12-15T17:58:58.390Z,0.80
2022-12-15T18:01:25.083Z,0.90
2022-12-15T18:03:51.803Z,0.80
2022-12-15T18:06:18.425Z,0.80
2022-12-15T18:08:45.516Z,0.70
2022-12-15T18:11:16.499Z,0.70
2022-12-15T18:13:44.118Z,0.80
2022-12-15T18:16:10.809Z,0.80
2022-12-15T18:18:37.423Z,0.70
2022-12-15T18:21:12.081Z,0.80
2022-12-15T18:23:38.728Z,0.70
2022-12-15T18:26:05.407Z,0.60
2022-12-15T18:28:32.880Z,0.60
2022-12-15T18:31:06.675Z,0.50
2022-12-15T18:33:33.979Z,0.60
2022-12-15T18:36:00.982Z,0.60
2022-12-15T18:38:28.722Z,0.70
2022-12-15T18:40:57.249Z,0.70
2022-12-15T18:43:25.115Z,0.80
2022-12-15T18:45:52.182Z,0.80
2022-12-15T18:48:20.214Z,0.80
2022-12-15T18:50:48.249Z,0.90
2022-12-15T18:53:17.538Z,0.70
2022-12-15T18:55:44.128Z,0.80
2022-12-15T18:58:27.411Z,0.80
2022-12-15T19:00:55.027Z,0.80
2022-12-15T19:03:22.215Z,0.80
2022-12-15T19:05:49.693Z,0.90
2022-12-15T19:08:18.334Z,0.80
2022-12-15T19:11:08.039Z,0.80
2022-12-15T19:13:35.963Z,0.90
2022-12-15T19:16:04.547Z,1.00
2022-12-15T19:18:49.893Z,1.00
2022-12-15T19:21:39.486Z,1.10
2022-12-15T19:24:06.959Z,1.10
2022-12-15T19:26:33.754Z,1.10
2022-12-15T19:29:00.466Z,1.00
2022-12-15T19:31:27.224Z,1.10
2022-12-15T19:33:53.947Z,1.00
2022-12-15T19:36:25.624Z,1.00
2022-12-15T19:38:54.145Z,1.00
2022-12-15T19:41:21.003Z,1.10
2022-12-15T19:43:47.732Z,1.10
2022-12-15T19:46:15.595Z,1.10
2022-12-15T19:48:42.866Z,2.20
2022-12-15T19:51:16.354Z,1.10
2022-12-15T19:53:43.601Z,1.00
2022-12-15T19:56:13.134Z,1.00
2022-12-15T19:58:39.997Z,0.90
2022-12-15T20:01:08.219Z,1.10
2022-12-15T20:03:35.341Z,1.10
2022-12-15T20:06:02.703Z,1.00
2022-12-15T20:08:32.809Z,1.00
2022-12-15T20:11:00.016Z,1.00
2022-12-15T20:13:26.666Z,1.10
2022-12-15T20:15:54.675Z,1.10
2022-12-15T20:18:21.354Z,0.90
2022-12-15T20:20:48.821Z,0.90
2022-12-15T20:23:20.684Z,2.00
2022-12-15T20:25:47.294Z,1.00
2022-12-15T20:28:21.956Z,1.10
2022-12-15T20:30:49.177Z,1.10
2022-12-15T20:33:16.343Z,1.00
2022-12-15T20:35:44.137Z,1.00
2022-12-15T20:38:19.709Z,1.20
2022-12-15T20:40:46.408Z,1.30
2022-12-15T20:43:17.260Z,1.40
2022-12-15T20:45:45.112Z,1.50
2022-12-15T20:48:13.469Z,1.40
2022-12-15T20:50:44.400Z,1.40
2022-12-15T20:53:13.990Z,1.40
2022-12-15T20:55:40.566Z,1.50
2022-12-15T20:58:07.241Z,1.30
2022-12-15T21:00:33.941Z,1.40
2022-12-15T21:03:00.717Z,1.50
2022-12-15T21:05:27.361Z,1.40
2022-12-15T21:07:53.945Z,1.40
2022-12-15T21:10:21.249Z,1.40
2022-12-15T21:12:48.984Z,1.40
2022-12-15T21:15:19.966Z,1.40
2022-12-15T21:17:46.950Z,1.50
2022-12-15T21:20:13.749Z,1.40
2022-12-15T21:22:40.571Z,1.50
2022-12-15T21:25:27.606Z,1.50
2022-12-15T21:27:54.269Z,1.50
2022-12-15T21:30:22.911Z,1.60
2022-12-15T21:32:50.313Z,1.60
2022-12-15T21:35:17.747Z,2.30
2022-12-15T21:37:49.590Z,1.80
2022-12-15T21:40:20.581Z,1.80
2022-12-15T21:42:47.845Z,1.70
2022-12-15T21:45:15.481Z,1.70
2022-12-15T21:48:00.814Z,1.80
2022-12-15T21:50:29.328Z,1.80
2022-12-15T21:52:56.207Z,1.80
2022-12-15T21:55:24.299Z,1.80
2022-12-15T21:57:51.708Z,1.90
2022-12-15T22:00:18.730Z,2.00
2022-12-15T22:02:46.167Z,2.00
2022-12-15T22:05:15.618Z,1.90
2022-12-15T22:07:42.343Z,1.90
2022-12-15T22:10:09.384Z,1.90
2022-12-15T22:12:36.276Z,1.90
2022-12-15T22:15:03.939Z,1.90
2022-12-15T22:17:30.640Z,2.00
2022-12-15T22:19:57.308Z,2.00
2022-12-15T22:22:30.106Z,1.90
2022-12-15T22:24:58.485Z,2.00
2022-12-15T22:27:25.053Z,1.90
2022-12-15T22:29:51.898Z,1.80
2022-12-15T22:32:18.535Z,1.90
2022-12-15T22:34:45.318Z,2.90
2022-12-15T22:37:11.914Z,1.70
2022-12-15T22:39:38.587Z,1.90
2022-12-15T22:42:05.615Z,1.90
2022-12-15T22:44:35.897Z,2.00
2022-12-15T22:47:03.377Z,1.90
2022-12-15T22:49:37.943Z,2.00
2022-12-15T22:52:18.068Z,2.00
2022-12-15T22:54:45.944Z,2.10
2022-12-15T22:57:33.042Z,2.10
2022-12-15T23:00:07.746Z,4.20
2022-12-15T23:02:36.534Z,2.10
2022-12-15T23:05:03.932Z,2.60
2022-12-15T23:07:30.554Z,2.20
2022-12-15T23:10:15.709Z,2.10
2022-12-15T23:12:42.342Z,2.10
2022-12-15T23:15:27.824Z,2.10
2022-12-15T23:17:54.496Z,2.20
2022-12-15T23:20:21.753Z,2.20
2022-12-15T23:22:48.331Z,2.20
2022-12-15T23:25:16.168Z,3.40
2022-12-15T23:27:42.731Z,2.20
2022-12-15T23:30:09.562Z,2.20
2022-12-15T23:32:38.650Z,2.20
2022-12-15T23:35:05.885Z,2.30
2022-12-15T23:37:32.567Z,2.20
2022-12-15T23:39:59.147Z,2.10
2022-12-15T23:42:25.723Z,2.20
2022-12-15T23:44:52.357Z,2.10
2022-12-15T23:47:21.535Z,4.30
2022-12-15T23:49:48.186Z,2.30
2022-12-15T23:52:14.847Z,2.30
2022-12-15T23:54:41.426Z,2.20
2022-12-15T23:57:07.992Z,2.30
2022-12-15T23:59:34.872Z,2.30
